STATION HISTORICAL DATA FROM WUNDERGROUND.COM FOR HIGH PARK VILLAGE,TORONTO,ON,CANADA
 
Daily Summary for September 15, 2019 Units:  Metric    English   Both
Next Day »
Daily Weekly Monthly Yearly Custom
  Current: High: Low: Average:
Temperature: 16.6 °C 18.1 °C 13.1 °C 15.7 °C
Dew Point: 13.9 °C 14.2 °C 10.4 °C 11.8 °C
Humidity: 84% 87% 66% 78%
Wind Speed: 1.9km/h 4.8km/h 0km/h 1.3km/h
Wind Gust: 0.2km/h 2.3km/h - -
WindNW - - WNW
Pressure: 1020.5 hPa 1021.9 hPa 1020.2 hPa -
Precipitation: 3.3 mm      
Historical Graphs
 
 
Tabular Data for September 15, 2019
Time Temperature Dew Point Pressure Wind Wind Speed Wind Gust Humidity Rainfall Rate (Hourly) Solar Conditions
00:00 17.9 °C 11.5 °C 1020.5 hPa SSE 1.9 km/h   66% 0 mm 0.00 W/m2
00:05 17.9 °C 11.4 °C 1020.5 hPa SSE 1.9 km/h   66% 0 mm 0.00 W/m2
00:10 17.8 °C 11.4 °C 1020.5 hPa Calm     66% 0 mm 0.00 W/m2
00:15 17.7 °C 11.3 °C 1020.5 hPa Calm     66% 0 mm 0.00 W/m2
00:20 17.7 °C 11.3 °C 1020.5 hPa SSE 1.9 km/h 0.2 km/h 66% 0 mm 0.00 W/m2
00:25 17.6 °C 11.2 °C 1020.5 hPa Calm     66% 0 mm 0.00 W/m2
00:30 17.4 °C 11.3 °C 1020.5 hPa NW 1.9 km/h 0.5 km/h 67% 0 mm 0.00 W/m2
00:35 17.3 °C 11.1 °C 1020.5 hPa NNW 1.9 km/h   67% 0 mm 0.00 W/m2
00:40 17.1 °C 11.2 °C 1020.5 hPa Calm     68% 0 mm 0.00 W/m2
00:45 17.1 °C 11.1 °C 1020.5 hPa NNW 1.9 km/h 0.2 km/h 68% 0 mm 0.00 W/m2
00:50 16.9 °C 11.2 °C 1020.5 hPa Calm     69% 0 mm 0.00 W/m2
00:55 16.9 °C 11.2 °C 1020.5 hPa NNW 1.6 km/h   69% 0 mm 0.00 W/m2
01:00 16.8 °C 11.1 °C 1020.9 hPa Calm     69% 0 mm 0.00 W/m2
01:05 16.7 °C 11.2 °C 1020.9 hPa Calm     70% 0 mm 0.00 W/m2
01:10 16.7 °C 11.2 °C 1020.9 hPa Calm     70% 0 mm 0.00 W/m2
01:15 16.6 °C 11.1 °C 1020.9 hPa NW 1.9 km/h   70% 0 mm 0.00 W/m2
01:20 16.5 °C 11.2 °C 1020.9 hPa NW 1.9 km/h 0.2 km/h 71% 0 mm 0.00 W/m2
01:25 16.5 °C 11.2 °C 1020.9 hPa NNW 1.9 km/h   71% 0 mm 0.00 W/m2
01:30 16.5 °C 11.2 °C 1020.9 hPa NW 1.6 km/h   71% 0 mm 0.00 W/m2
01:35 16.5 °C 11.2 °C 1020.5 hPa NNW 1.9 km/h   71% 0 mm 0.00 W/m2
01:40 16.6 °C 11.3 °C 1020.9 hPa Calm     71% 0 mm 0.00 W/m2
01:45 16.6 °C 11.3 °C 1020.9 hPa NNW 1.9 km/h 0.2 km/h 71% 0 mm 0.00 W/m2
01:50 16.6 °C 11.3 °C 1020.9 hPa NW 1.9 km/h 0.2 km/h 71% 0 mm 0.00 W/m2
01:55 16.5 °C 11.2 °C 1020.9 hPa West 1.9 km/h 0.2 km/h 71% 0 mm 0.00 W/m2
02:01 16.5 °C 11.2 °C 1020.5 hPa NW 3.7 km/h 0.3 km/h 71% 0 mm 0.00 W/m2
02:05 16.4 °C 11.2 °C 1020.5 hPa NW 3.7 km/h 0.2 km/h 71% 0 mm 0.00 W/m2
02:10 16.4 °C 11.3 °C 1020.5 hPa NW 1.9 km/h 0.3 km/h 72% 0 mm 0.00 W/m2
02:15 16.3 °C 11.3 °C 1020.5 hPa NNW 1.9 km/h 0.2 km/h 72% 0 mm 0.00 W/m2
02:20 16.3 °C 11.3 °C 1020.5 hPa NW 1.9 km/h 0.2 km/h 72% 0 mm 0.00 W/m2
02:25 16.2 °C 11.4 °C 1020.5 hPa NW 1.9 km/h   73% 0 mm 0.00 W/m2
02:30 16.2 °C 11.3 °C 1020.5 hPa NW 1.9 km/h 0.2 km/h 73% 0 mm 0.00 W/m2
02:35 16.2 °C 11.3 °C 1020.5 hPa NW 1.9 km/h 0.3 km/h 73% 0 mm 0.00 W/m2
02:40 16.1 °C 11.5 °C 1020.5 hPa NNW 1.9 km/h 0.8 km/h 74% 0 mm 0.00 W/m2
02:45 16.1 °C 11.4 °C 1020.5 hPa NW 1.9 km/h 0.5 km/h 74% 0 mm 0.00 W/m2
02:50 15.9 °C 11.3 °C 1020.5 hPa North 1.9 km/h 0.3 km/h 74% 0 mm 0.00 W/m2
02:55 15.8 °C 11.2 °C 1020.5 hPa NNW 1.9 km/h 0.2 km/h 74% 0 mm 0.00 W/m2
03:00 15.8 °C 11.2 °C 1020.5 hPa North 1.6 km/h   74% 0 mm 0.00 W/m2
03:05 15.8 °C 11.4 °C 1020.5 hPa NNW 1.9 km/h 0.2 km/h 75% 0 mm 0.00 W/m2
03:10 15.8 °C 11.4 °C 1020.2 hPa NW 1.9 km/h 0.6 km/h 75% 0 mm 0.00 W/m2
03:15 15.8 °C 11.2 °C 1020.2 hPa NNW 1.9 km/h 1.3 km/h 74% 0 mm 0.00 W/m2
03:20 15.7 °C 11.3 °C 1020.2 hPa NW 3.7 km/h 1.6 km/h 75% 0 mm 0.00 W/m2
03:25 15.7 °C 11.3 °C 1020.2 hPa NNW 3.2 km/h 0.5 km/h 75% 0 mm 0.00 W/m2
03:30 15.7 °C 11.3 °C 1020.2 hPa NW 4.8 km/h 1.1 km/h 75% 0 mm 0.00 W/m2
03:35 15.6 °C 11.2 °C 1020.2 hPa NW 3.7 km/h 0.6 km/h 75% 0 mm 0.00 W/m2
03:40 15.6 °C 11.2 °C 1020.2 hPa NW 3.7 km/h 1 km/h 75% 0 mm 0.00 W/m2
03:45 15.4 °C 11.1 °C 1020.2 hPa NNW 3.7 km/h 1.4 km/h 75% 0 mm 0.00 W/m2
03:50 15.3 °C 11.1 °C 1020.2 hPa North 1.9 km/h 0.6 km/h 76% 0 mm 0.00 W/m2
03:55 15.1 °C 11.1 °C 1020.2 hPa NNW 1.9 km/h 0.3 km/h 77% 0 mm 0.00 W/m2
04:00 15 °C 11 °C 1020.2 hPa NW 1.9 km/h 0.3 km/h 77% 0 mm 0.00 W/m2
04:05 14.9 °C 10.9 °C 1020.2 hPa ENE 3.7 km/h 1.1 km/h 77% 0 mm 0.00 W/m2
04:10 14.9 °C 11.1 °C 1020.2 hPa North 3.7 km/h 1.1 km/h 78% 0 mm 0.00 W/m2
04:15 14.8 °C 11 °C 1020.5 hPa NNW 3.7 km/h 1 km/h 78% 0 mm 0.00 W/m2
04:20 14.7 °C 10.9 °C 1020.5 hPa NNW 1.9 km/h 0.6 km/h 78% 0 mm 0.00 W/m2
04:25 14.6 °C 10.8 °C 1020.5 hPa NW 3.7 km/h 1.4 km/h 78% 0 mm 0.00 W/m2
04:30 14.6 °C 10.8 °C 1020.2 hPa NNW 4.8 km/h 2.3 km/h 78% 0 mm 0.00 W/m2
04:35 14.6 °C 11 °C 1020.2 hPa NNW 4.8 km/h 2.3 km/h 79% 0 mm 0.00 W/m2
04:40 14.6 °C 11 °C 1020.2 hPa NNW 3.7 km/h 1.3 km/h 79% 0 mm 0.00 W/m2
04:45 14.6 °C 10.8 °C 1020.2 hPa NW 3.7 km/h 0.6 km/h 78% 0 mm 0.00 W/m2
04:50 14.6 °C 10.8 °C 1020.2 hPa NNW 1.9 km/h 0.3 km/h 78% 0 mm 0.00 W/m2
04:55 14.6 °C 10.8 °C 1020.5 hPa NNW 1.9 km/h 0.5 km/h 78% 0 mm 0.00 W/m2
05:00 14.6 °C 11 °C 1020.5 hPa NW 1.9 km/h 0.2 km/h 79% 0 mm 0.00 W/m2
05:05 14.4 °C 10.9 °C 1020.5 hPa NNW 1.9 km/h   79% 0 mm 0.00 W/m2
05:10 14.4 °C 10.8 °C 1020.2 hPa NW 1.9 km/h 0.2 km/h 79% 0 mm 0.00 W/m2
05:15 14.3 °C 10.8 °C 1020.2 hPa NW 1.9 km/h   79% 0 mm 0.00 W/m2
05:20 14.3 °C 10.7 °C 1020.5 hPa NNW 1.9 km/h 0.5 km/h 79% 0 mm 0.00 W/m2
05:25 14.2 °C 10.8 °C 1020.5 hPa NNW 1.9 km/h 0.5 km/h 80% 0 mm 0.00 W/m2
05:30 14.2 °C 10.8 °C 1020.5 hPa NNW 1.9 km/h 0.2 km/h 80% 0 mm 0.00 W/m2
05:35 14.2 °C 10.8 °C 1020.5 hPa NW 1.9 km/h 0.3 km/h 80% 0 mm 0.00 W/m2
05:40 14.1 °C 10.7 °C 1020.5 hPa NW 3.7 km/h 0.8 km/h 80% 0 mm 0.00 W/m2
05:45 14.1 °C 10.7 °C 1020.5 hPa West 1.9 km/h 0.3 km/h 80% 0 mm 0.00 W/m2
05:50 14.1 °C 10.9 °C 1020.5 hPa Calm     81% 0 mm 0.00 W/m2
05:55 14.1 °C 10.9 °C 1020.5 hPa NW 1.9 km/h   81% 0 mm 0.00 W/m2
06:00 13.9 °C 10.8 °C 1020.5 hPa NW 1.9 km/h   81% 0 mm 0.00 W/m2
06:05 13.9 °C 10.7 °C 1020.5 hPa WNW 1.9 km/h   81% 0 mm 0.00 W/m2
06:10 13.9 °C 10.7 °C 1020.5 hPa Calm     81% 0 mm 0.00 W/m2
06:15 13.9 °C 10.7 °C 1020.5 hPa WNW 1.9 km/h   81% 0 mm 0.00 W/m2
06:20 13.9 °C 10.9 °C 1020.5 hPa Calm     82% 0 mm 0.00 W/m2
06:25 13.8 °C 10.8 °C 1020.2 hPa Calm     82% 0 mm 0.00 W/m2
06:30 13.9 °C 10.9 °C 1020.5 hPa Calm     82% 0 mm 0.00 W/m2 CLR
06:35 13.8 °C 10.8 °C 1020.9 hPa WNW 3.7 km/h 0.5 km/h 82% 0 mm 0.00 W/m2 CLR
06:40 13.6 °C 10.6 °C 1020.9 hPa NW 3.7 km/h 1.3 km/h 82% 0 mm 0.00 W/m2 CLR
06:45 13.3 °C 10.5 °C 1020.5 hPa Calm     83% 0 mm 0.00 W/m2 CLR
06:50 13.3 °C 10.5 °C 1020.9 hPa NNW 3.7 km/h 0.3 km/h 83% 0 mm 0.00 W/m2 CLR
06:55 13.2 °C 10.4 °C 1020.9 hPa Calm     83% 0 mm 0.00 W/m2 CLR
07:01 13.2 °C 10.5 °C 1020.5 hPa Calm     84% 0 mm 0.00 W/m2 CLR
07:05 13.2 °C 10.6 °C 1020.5 hPa NW 1.9 km/h 0.2 km/h 84% 0 mm 0.00 W/m2 CLR
07:10 13.2 °C 10.6 °C 1020.5 hPa NW 1.9 km/h 0.2 km/h 84% 0 mm 0.00 W/m2 CLR
07:15 13.2 °C 10.6 °C 1020.5 hPa Calm     84% 0 mm 5.00 W/m2 CLR
07:20 13.2 °C 10.6 °C 1020.5 hPa NW 1.9 km/h 0.6 km/h 84% 0 mm 7.00 W/m2 CLR
07:25 13.2 °C 10.6 °C 1020.5 hPa WNW 1.9 km/h   84% 0 mm 11.00 W/m2 CLR
07:30 13.3 °C 10.7 °C 1020.9 hPa NW 1.9 km/h 0.3 km/h 84% 0 mm 9.00 W/m2 CLR
07:35 13.2 °C 10.6 °C 1020.9 hPa NW 1.9 km/h 0.2 km/h 84% 0 mm 14.00 W/m2 CLR
07:40 13.1 °C 10.5 °C 1020.9 hPa NNW 1.9 km/h   84% 0 mm 21.00 W/m2 CLR
07:45 13.1 °C 10.5 °C 1020.9 hPa NW 1.9 km/h 0.2 km/h 84% 0 mm 28.00 W/m2 CLR
07:50 13.2 °C 10.6 °C 1020.5 hPa Calm     84% 0 mm 28.00 W/m2 CLR
07:55 13.4 °C 10.8 °C 1020.9 hPa Calm     84% 0 mm 19.00 W/m2 CLR
08:00 13.6 °C 10.9 °C 1020.9 hPa Calm     84% 0 mm 25.00 W/m2 OVC
08:05 13.8 °C 11.2 °C 1020.9 hPa Calm     84% 0 mm 19.00 W/m2 OVC
08:10 13.9 °C 11.3 °C 1021.2 hPa Calm     84% 0 mm 19.00 W/m2 OVC
08:15 14.1 °C 11.3 °C 1021.2 hPa Calm     83% 0 mm 25.00 W/m2 OVC
08:20 14.3 °C 11.4 °C 1021.2 hPa Calm     83% 0 mm 35.00 W/m2 OVC
08:25 14.4 °C 11.4 °C 1021.2 hPa Calm     82% 0 mm 35.00 W/m2 OVC
08:30 14.5 °C 11.5 °C 1021.2 hPa Calm     82% 0 mm 33.00 W/m2 OVC
08:35 14.6 °C 11.6 °C 1021.2 hPa Calm     82% 0 mm 37.00 W/m2 OVC
08:40 14.7 °C 11.7 °C 1021.2 hPa Calm     82% 0 mm 49.00 W/m2 OVC
08:45 14.9 °C 11.9 °C 1021.2 hPa Calm     82% 0 mm 49.00 W/m2 OVC
08:50 15.1 °C 11.9 °C 1020.9 hPa Calm     81% 0 mm 30.00 W/m2 OVC
08:55 15.3 °C 12.1 °C 1020.9 hPa Calm     81% 0 mm 16.00 W/m2 OVC
09:00 15.4 °C 12.2 °C 1020.9 hPa Calm     81% 0 mm 32.00 W/m2 OVC
09:05 15.6 °C 12.1 °C 1020.9 hPa Calm     80% 0 mm 35.00 W/m2 OVC
09:10 15.7 °C 12.3 °C 1020.5 hPa Calm     80% 0 mm 46.00 W/m2 OVC
09:15 15.9 °C 12.4 °C 1020.9 hPa Calm     80% 0 mm 39.00 W/m2 OVC
09:20 16.1 °C 12.6 °C 1020.9 hPa Calm     80% 0 mm 39.00 W/m2 OVC
09:25 16.2 °C 12.6 °C 1020.9 hPa Calm     79% 0 mm 39.00 W/m2 OVC
09:30 16.3 °C 12.5 °C 1020.9 hPa Calm     78% 0 mm 35.00 W/m2 OVC
09:35 16.5 °C 12.7 °C 1020.9 hPa Calm     78% 0 mm 49.00 W/m2 OVC
09:40 16.6 °C 12.6 °C 1020.9 hPa Calm     77% 0 mm 54.00 W/m2 OVC
09:45 16.7 °C 12.7 °C 1021.2 hPa Calm     77% 0 mm 49.00 W/m2 OVC
09:50 16.9 °C 12.9 °C 1020.9 hPa Calm     77% 0 mm 47.00 W/m2 OVC
09:55 17.1 °C 12.8 °C 1021.2 hPa Calm     76% 0 mm 65.00 W/m2 OVC
10:00 17.2 °C 12.9 °C 1021.2 hPa Calm     76% 0 mm 65.00 W/m2 OVC
10:05 17.3 °C 12.8 °C 1021.2 hPa Calm     75% 0 mm 69.00 W/m2 OVC
10:10 17.4 °C 12.7 °C 1021.2 hPa Calm     74% 0 mm 63.00 W/m2 OVC
10:15 17.6 °C 12.7 °C 1021.2 hPa Calm     73% 0 mm 58.00 W/m2 OVC
10:20 17.7 °C 12.8 °C 1021.2 hPa Calm     73% 0 mm 70.00 W/m2 OVC
10:25 17.8 °C 12.7 °C 1021.2 hPa Calm     72% 0 mm 58.00 W/m2 OVC
10:30 17.8 °C 12.7 °C 1021.6 hPa NW 1.9 km/h   72% 0 mm 97.00 W/m2 OVC
10:35 17.8 °C 12.7 °C 1021.2 hPa Calm     72% 0 mm 97.00 W/m2 OVC
10:40 17.9 °C 12.8 °C 1021.2 hPa Calm     72% 0 mm 63.00 W/m2 OVC
10:45 18.1 °C 12.7 °C 1021.6 hPa Calm     71% 0 mm 25.00 W/m2 OVC
10:50 18.1 °C 12.6 °C 1021.6 hPa NW 1.6 km/h   70% 0 mm 18.00 W/m2 OVC
10:55 18 °C 12.4 °C 1021.6 hPa NW 1.9 km/h 0.3 km/h 70% 0 mm 21.00 W/m2 OVC
11:00 17.8 °C 12.3 °C 1021.6 hPa Calm     70% 0 mm 23.00 W/m2 OVC
11:05 17.7 °C 12.4 °C 1021.6 hPa Calm     71% 0 mm 12.00 W/m2 OVC
11:10 17.6 °C 12.7 °C 1021.9 hPa NW 3.7 km/h 1.1 km/h 73% 0 mm 11.00 W/m2 OVC
11:15 17.4 °C 12.7 °C 1021.2 hPa Calm     74% 2.03 mm 25.00 W/m2 RA
11:20 17.3 °C 13.1 °C 1020.9 hPa Calm     76% 2.03 mm 42.00 W/m2 RA
11:25 17.3 °C 13.3 °C 1020.9 hPa SSW 1.6 km/h   77% 2.03 mm 25.00 W/m2 OVC
11:30 17.3 °C 13.5 °C 1021.2 hPa South 1.9 km/h 0.2 km/h 78% 2.03 mm 28.00 W/m2 OVC
11:35 17.2 °C 13.4 °C 1020.9 hPa Calm     78% 2.03 mm 35.00 W/m2 OVC
11:40 17.2 °C 13.5 °C 1020.9 hPa Calm     79% 2.03 mm 18.00 W/m2 OVC
11:45 17.1 °C 13.7 °C 1020.9 hPa Calm     80% 2.03 mm 21.00 W/m2 OVC
11:50 17 °C 13.6 °C 1020.9 hPa Calm     80% 2.03 mm 26.00 W/m2 OVC
11:55 16.9 °C 13.7 °C 1020.9 hPa Calm     81% 2.03 mm 25.00 W/m2 OVC
12:00 16.8 °C 13.6 °C 1020.9 hPa Calm     81% 2.03 mm 18.00 W/m2 OVC
12:05 16.8 °C 13.7 °C 1020.9 hPa Calm     82% 2.03 mm 25.00 W/m2 OVC
12:10 16.7 °C 13.6 °C 1020.9 hPa Calm     82% 2.03 mm 21.00 W/m2 OVC
12:15 16.6 °C 13.5 °C 1020.9 hPa Calm     82% 0 mm 42.00 W/m2 OVC
12:20 16.6 °C 13.7 °C 1020.9 hPa Calm     83% 0 mm 49.00 W/m2 OVC
12:25 16.7 °C 13.9 °C 1021.2 hPa Calm     84% 0 mm 39.00 W/m2 OVC
12:30 16.7 °C 13.9 °C 1020.9 hPa Calm     84% 0 mm 16.00 W/m2 OVC
12:35 16.7 °C 13.9 °C 1020.9 hPa Calm     84% 0 mm 16.00 W/m2 OVC
12:40 16.7 °C 13.9 °C 1020.9 hPa Calm     84% 0 mm 30.00 W/m2 OVC
12:45 16.4 °C 13.5 °C 1021.2 hPa Calm     83% 0 mm 32.00 W/m2 OVC
12:50 16.2 °C 13.5 °C 1021.2 hPa Calm     84% 0 mm 32.00 W/m2 OVC
12:55 15.9 °C 13.3 °C 1021.2 hPa NW 1.9 km/h 0.6 km/h 84% 0 mm 21.00 W/m2 OVC
13:01 15.8 °C 13.1 °C 1021.6 hPa Calm   1.6 km/h 84% 0 mm 21.00 W/m2 OVC
13:05 15.6 °C 12.9 °C 1021.6 hPa NW 1.9 km/h 0.2 km/h 84% 0 mm 19.00 W/m2 OVC
13:10 15.6 °C 12.9 °C 1020.9 hPa Calm     84% 0 mm 21.00 W/m2 OVC
13:15 15.7 °C 13 °C 1020.5 hPa SSE 1.6 km/h 0.2 km/h 84% 0 mm 21.00 W/m2 OVC
13:20 15.6 °C 12.9 °C 1020.2 hPa SSE 1.9 km/h 0.3 km/h 84% 0 mm 18.00 W/m2 OVC
13:25 15.7 °C 13 °C 1020.2 hPa Calm     84% 0 mm 19.00 W/m2 OVC
13:30 15.7 °C 13.2 °C 1020.5 hPa South 1.9 km/h   85% 0 mm 30.00 W/m2 OVC
13:35 15.8 °C 13.3 °C 1020.5 hPa Calm     85% 0 mm 53.00 W/m2 OVC
13:40 15.9 °C 13.6 °C 1020.5 hPa Calm     86% 0 mm 90.00 W/m2 OVC
13:45 16.1 °C 13.9 °C 1020.9 hPa Calm     87% 0 mm 84.00 W/m2 OVC
13:50 16.2 °C 14 °C 1020.9 hPa Calm     87% 0 mm 186.00 W/m2 OVC
13:55 16.4 °C 14.2 °C 1020.9 hPa Calm     87% 0 mm 100.00 W/m2 OVC
14:00 16.5 °C 14.2 °C 1020.5 hPa West 1.6 km/h   86% 0 mm 114.00 W/m2 OVC
14:05 16.7 °C 14.2 °C 1020.5 hPa Calm     85% 0 mm 111.00 W/m2 OVC
14:11 16.7 °C 14.2 °C 1020.5 hPa NW 1.6 km/h 0.2 km/h 85% 0 mm 40.00 W/m2 OVC
14:15 16.6 °C 13.9 °C 1020.5 hPa NW 1.9 km/h 0.2 km/h 84% 1.27 mm 33.00 W/m2 RA
High Park Village Arhives